createdAt,value
2022-08-27T00:00:16.050Z,8.52
2022-08-27T00:01:18.713Z,8.05
2022-08-27T00:02:21.399Z,7.97
2022-08-27T00:03:24.643Z,8.43
2022-08-27T00:04:27.783Z,7.68
2022-08-27T00:05:30.445Z,7.28
2022-08-27T00:06:33.159Z,8.25
2022-08-27T00:07:35.802Z,8.35
2022-08-27T00:08:38.516Z,8.05
2022-08-27T00:09:41.249Z,8.20
2022-08-27T00:10:44.062Z,8.55
2022-08-27T00:11:46.818Z,7.82
2022-08-27T00:12:49.519Z,7.82
2022-08-27T00:13:52.491Z,7.70
2022-08-27T00:14:55.144Z,7.43
2022-08-27T00:15:57.960Z,7.55
2022-08-27T00:17:00.723Z,7.45
2022-08-27T00:18:03.962Z,7.65
2022-08-27T00:19:06.722Z,7.22
2022-08-27T00:20:09.892Z,7.35
2022-08-27T00:21:13.228Z,7.00
2022-08-27T00:22:15.858Z,8.35
2022-08-27T00:23:18.625Z,7.13
2022-08-27T00:24:21.314Z,7.50
2022-08-27T00:25:24.070Z,7.50
2022-08-27T00:26:26.967Z,7.25
2022-08-27T00:27:29.647Z,8.18
2022-08-27T00:28:33.771Z,7.47
2022-08-27T00:29:36.578Z,7.30
2022-08-27T00:30:40.013Z,7.43
2022-08-27T00:31:42.653Z,6.95
2022-08-27T00:32:46.311Z,7.30
2022-08-27T00:33:48.994Z,7.30
2022-08-27T00:34:52.777Z,7.28
2022-08-27T00:35:55.904Z,8.13
2022-08-27T00:36:58.604Z,8.05
2022-08-27T00:38:01.361Z,8.32
2022-08-27T00:39:04.649Z,7.65
2022-08-27T00:40:09.889Z,8.70
2022-08-27T00:41:12.870Z,7.82
2022-08-27T00:42:20.168Z,7.05
2022-08-27T00:43:28.880Z,8.23
2022-08-27T00:44:32.180Z,8.25
2022-08-27T00:45:39.180Z,7.22
2022-08-27T00:46:57.611Z,7.93
2022-08-27T00:48:01.184Z,7.18
2022-08-27T00:49:18.467Z,7.60
2022-08-27T00:50:36.245Z,7.75
2022-08-27T00:51:39.274Z,7.38
2022-08-27T00:52:53.173Z,7.47
2022-08-27T00:53:58.171Z,8.05
2022-08-27T00:55:05.830Z,7.32
2022-08-27T00:56:18.992Z,7.35
2022-08-27T00:57:21.783Z,7.03
2022-08-27T00:58:29.107Z,7.70
2022-08-27T00:59:32.946Z,7.63
2022-08-27T01:00:36.498Z,8.05
2022-08-27T01:01:59.160Z,8.25
2022-08-27T01:03:01.847Z,7.78
2022-08-27T01:04:06.144Z,8.27
2022-08-27T01:05:11.608Z,8.18
2022-08-27T01:06:16.075Z,7.95
2022-08-27T01:07:19.609Z,7.03
2022-08-27T01:08:25.573Z,7.95
2022-08-27T01:09:28.761Z,7.80
2022-08-27T01:10:31.905Z,8.35
2022-08-27T01:11:34.791Z,7.28
2022-08-27T01:12:38.349Z,7.43
2022-08-27T01:13:59.129Z,7.55
2022-08-27T01:15:06.843Z,7.53
2022-08-27T01:16:11.401Z,8.20
2022-08-27T01:17:15.351Z,8.48
2022-08-27T01:18:19.590Z,7.90
2022-08-27T01:19:29.284Z,7.60
2022-08-27T01:20:38.485Z,7.35
2022-08-27T01:22:03.901Z,7.75
2022-08-27T01:23:18.614Z,6.85
2022-08-27T01:24:36.242Z,7.28
2022-08-27T01:25:41.258Z,7.55
2022-08-27T01:26:46.392Z,7.13
2022-08-27T01:27:49.481Z,8.32
2022-08-27T01:28:53.254Z,7.68
2022-08-27T01:29:56.171Z,7.95
2022-08-27T01:30:58.944Z,7.07
2022-08-27T01:32:11.965Z,7.88
2022-08-27T01:33:18.784Z,7.30
2022-08-27T01:34:21.455Z,7.80
2022-08-27T01:35:24.329Z,7.47
2022-08-27T01:36:27.541Z,7.82
2022-08-27T01:37:30.267Z,8.65
2022-08-27T01:38:33.650Z,7.75
2022-08-27T01:39:39.946Z,8.05
2022-08-27T01:40:44.370Z,7.95
2022-08-27T01:41:47.857Z,7.65
2022-08-27T01:42:56.294Z,6.65
2022-08-27T01:43:58.864Z,8.00
2022-08-27T01:45:09.731Z,7.68
2022-08-27T01:46:12.919Z,7.32
2022-08-27T01:47:16.991Z,8.45
2022-08-27T01:48:21.395Z,7.38
2022-08-27T01:49:24.092Z,7.50
2022-08-27T01:50:29.879Z,7.80
2022-08-27T01:51:32.652Z,7.90
2022-08-27T01:52:38.279Z,7.70
2022-08-27T01:53:40.912Z,7.40
2022-08-27T01:54:43.986Z,7.22
2022-08-27T01:55:48.881Z,7.70
2022-08-27T01:56:51.907Z,7.10
2022-08-27T01:57:55.512Z,7.63
2022-08-27T01:58:58.096Z,7.57
2022-08-27T02:00:01.001Z,7.75
2022-08-27T02:01:08.700Z,6.97
2022-08-27T02:02:13.366Z,6.88
2022-08-27T02:03:18.544Z,7.15
2022-08-27T02:04:21.594Z,7.72
2022-08-27T02:05:26.940Z,7.82
2022-08-27T02:06:29.523Z,8.50
2022-08-27T02:07:32.190Z,7.50
2022-08-27T02:08:35.171Z,7.55
2022-08-27T02:09:37.902Z,7.45
2022-08-27T02:10:40.885Z,7.85
2022-08-27T02:11:45.183Z,7.40
2022-08-27T02:12:47.987Z,7.35
2022-08-27T02:13:50.663Z,7.07
2022-08-27T02:14:53.348Z,7.85
2022-08-27T02:15:56.030Z,7.20
2022-08-27T02:16:58.910Z,7.85
2022-08-27T02:18:01.962Z,7.63
2022-08-27T02:19:04.725Z,7.22
2022-08-27T02:20:12.733Z,7.57
2022-08-27T02:21:15.447Z,7.53
2022-08-27T02:22:18.475Z,8.27
2022-08-27T02:23:21.901Z,7.20
2022-08-27T02:24:24.556Z,6.90
2022-08-27T02:25:29.081Z,8.10
2022-08-27T02:26:33.559Z,7.25
2022-08-27T02:27:36.989Z,7.63
2022-08-27T02:28:39.635Z,7.88
2022-08-27T02:29:42.308Z,7.25
2022-08-27T02:30:44.958Z,7.22
2022-08-27T02:31:47.709Z,7.63
2022-08-27T02:32:53.101Z,7.40
2022-08-27T02:33:56.277Z,7.72
2022-08-27T02:34:59.000Z,7.65
2022-08-27T02:36:01.773Z,6.85
2022-08-27T02:37:05.202Z,7.35
2022-08-27T02:38:08.347Z,7.18
2022-08-27T02:39:11.521Z,6.57
2022-08-27T02:40:17.492Z,7.07
2022-08-27T02:41:20.294Z,7.43
2022-08-27T02:42:22.986Z,7.95
2022-08-27T02:43:25.750Z,6.90
2022-08-27T02:44:32.144Z,6.72
2022-08-27T02:45:36.651Z,7.15
2022-08-27T02:46:40.101Z,7.40
2022-08-27T02:47:42.959Z,6.88
2022-08-27T02:48:45.655Z,7.28
2022-08-27T02:49:48.458Z,7.07
2022-08-27T02:50:51.680Z,7.03
2022-08-27T02:51:57.567Z,7.45
2022-08-27T02:53:02.229Z,8.25
2022-08-27T02:54:05.127Z,6.85
2022-08-27T02:55:11.625Z,7.18
2022-08-27T02:56:14.269Z,7.55
2022-08-27T02:57:24.715Z,7.20
2022-08-27T02:58:27.582Z,7.28
2022-08-27T02:59:30.240Z,6.97
2022-08-27T03:00:32.824Z,9.63
2022-08-27T03:01:36.587Z,7.30
2022-08-27T03:02:39.348Z,8.80
2022-08-27T03:03:42.314Z,7.07
2022-08-27T03:04:45.019Z,6.90
2022-08-27T03:05:48.250Z,7.70
2022-08-27T03:06:50.913Z,6.97
2022-08-27T03:07:53.650Z,7.10
2022-08-27T03:08:56.321Z,6.68
2022-08-27T03:09:59.122Z,7.28
2022-08-27T03:11:02.754Z,6.90
2022-08-27T03:12:05.616Z,7.65
2022-08-27T03:13:08.217Z,7.65
2022-08-27T03:14:10.744Z,7.07
2022-08-27T03:15:16.322Z,7.32
2022-08-27T03:16:19.330Z,6.60
2022-08-27T03:17:40.507Z,7.20
2022-08-27T03:18:43.142Z,7.07
2022-08-27T03:19:45.750Z,7.05
2022-08-27T03:20:54.379Z,7.57
2022-08-27T03:21:57.009Z,7.18
2022-08-27T03:23:00.494Z,7.18
2022-08-27T03:24:11.511Z,8.43
2022-08-27T03:25:14.442Z,7.25
2022-08-27T03:26:17.640Z,6.95
2022-08-27T03:27:20.195Z,7.55
2022-08-27T03:28:26.303Z,7.47
2022-08-27T03:29:28.968Z,7.68
2022-08-27T03:30:32.013Z,6.85
2022-08-27T03:31:34.981Z,7.15
2022-08-27T03:32:38.154Z,7.03
2022-08-27T03:33:42.506Z,7.70
2022-08-27T03:34:45.073Z,7.40
2022-08-27T03:35:51.731Z,8.77
2022-08-27T03:36:54.701Z,8.30
2022-08-27T03:37:57.340Z,6.93
2022-08-27T03:38:59.939Z,7.47
2022-08-27T03:40:04.033Z,7.35
2022-08-27T03:41:06.914Z,7.38
2022-08-27T03:42:09.437Z,7.85
2022-08-27T03:43:16.786Z,6.55
2022-08-27T03:44:21.636Z,7.50
2022-08-27T03:45:24.755Z,7.50
2022-08-27T03:46:30.331Z,7.80
2022-08-27T03:47:33.446Z,7.95
2022-08-27T03:48:36.157Z,7.70
2022-08-27T03:49:39.074Z,7.50
2022-08-27T03:50:43.639Z,6.93
2022-08-27T03:51:46.541Z,7.13
2022-08-27T03:52:49.968Z,7.60
2022-08-27T03:53:52.564Z,7.15
2022-08-27T03:54:55.228Z,7.22
2022-08-27T03:55:58.197Z,7.15
2022-08-27T03:57:00.903Z,8.68
2022-08-27T03:58:03.813Z,6.60
2022-08-27T03:59:07.449Z,7.47
2022-08-27T04:00:12.606Z,7.80
2022-08-27T04:01:15.197Z,7.38
2022-08-27T04:02:17.772Z,7.75
2022-08-27T04:03:20.539Z,7.30
2022-08-27T04:04:26.590Z,7.18
2022-08-27T04:05:29.895Z,7.35
2022-08-27T04:06:35.149Z,7.18
2022-08-27T04:07:39.280Z,7.20
2022-08-27T04:08:41.776Z,7.80
2022-08-27T04:09:44.382Z,7.88
2022-08-27T04:10:46.929Z,7.10
2022-08-27T04:11:49.618Z,7.50
2022-08-27T04:12:52.305Z,7.75
2022-08-27T04:13:57.760Z,7.75
2022-08-27T04:15:00.408Z,6.95
2022-08-27T04:16:05.566Z,8.07
2022-08-27T04:17:08.236Z,7.03
2022-08-27T04:18:12.642Z,7.70
2022-08-27T04:19:15.382Z,7.50
2022-08-27T04:20:35.125Z,7.93
2022-08-27T04:21:38.511Z,7.78
2022-08-27T04:22:41.149Z,7.53
2022-08-27T04:23:43.819Z,6.88
2022-08-27T04:24:46.794Z,7.60
2022-08-27T04:25:49.468Z,7.63
2022-08-27T04:26:52.118Z,6.80
2022-08-27T04:27:55.019Z,7.78
2022-08-27T04:28:58.760Z,8.00
2022-08-27T04:30:02.213Z,6.97
2022-08-27T04:31:05.198Z,7.05
2022-08-27T04:32:07.965Z,7.85
2022-08-27T04:33:11.981Z,7.43
2022-08-27T04:34:14.646Z,6.63
2022-08-27T04:35:17.441Z,7.78
2022-08-27T04:36:20.987Z,7.97
2022-08-27T04:37:24.530Z,7.15
2022-08-27T04:38:27.208Z,6.95
2022-08-27T04:39:30.876Z,8.00
2022-08-27T04:40:52.543Z,7.30
2022-08-27T04:41:57.278Z,7.15
2022-08-27T04:43:00.360Z,7.10
2022-08-27T04:44:06.741Z,7.75
2022-08-27T04:45:09.865Z,8.13
2022-08-27T04:46:12.889Z,7.68
2022-08-27T04:47:17.022Z,7.13
2022-08-27T04:48:19.771Z,7.20
2022-08-27T04:49:22.356Z,7.18
2022-08-27T04:50:24.975Z,7.53
2022-08-27T04:51:32.664Z,6.78
2022-08-27T04:52:41.088Z,6.90
2022-08-27T04:53:44.226Z,6.82
2022-08-27T04:54:46.943Z,7.13
2022-08-27T04:55:52.859Z,7.18
2022-08-27T04:56:55.400Z,7.40
2022-08-27T04:57:58.000Z,7.28
2022-08-27T04:59:03.993Z,7.63
2022-08-27T05:00:08.763Z,7.22
2022-08-27T05:01:19.801Z,6.85
2022-08-27T05:02:22.417Z,7.35
2022-08-27T05:03:26.260Z,6.47
2022-08-27T05:04:30.511Z,7.63
2022-08-27T05:05:33.183Z,6.90
2022-08-27T05:06:36.897Z,7.45
2022-08-27T05:07:39.486Z,7.55
2022-08-27T05:08:42.450Z,7.95
2022-08-27T05:09:45.059Z,6.80
2022-08-27T05:10:50.809Z,7.03
2022-08-27T05:11:55.548Z,7.68
2022-08-27T05:13:00.075Z,7.20
2022-08-27T05:14:04.753Z,7.47
2022-08-27T05:15:07.717Z,7.95
2022-08-27T05:16:13.539Z,7.70
2022-08-27T05:17:16.147Z,7.00
2022-08-27T05:18:18.741Z,7.88
2022-08-27T05:19:21.915Z,7.97
2022-08-27T05:20:24.515Z,7.05
2022-08-27T05:21:31.157Z,7.13
2022-08-27T05:22:33.751Z,7.68
2022-08-27T05:23:36.947Z,7.82
2022-08-27T05:24:41.421Z,7.45
2022-08-27T05:25:46.103Z,7.43
2022-08-27T05:26:49.620Z,7.15
2022-08-27T05:27:52.771Z,7.95
2022-08-27T05:28:55.533Z,6.75
2022-08-27T05:29:58.496Z,7.10
2022-08-27T05:31:06.863Z,7.28
2022-08-27T05:32:09.592Z,6.75
2022-08-27T05:33:15.087Z,7.35
2022-08-27T05:34:18.847Z,6.95
2022-08-27T05:35:28.412Z,6.78
2022-08-27T05:36:33.229Z,7.25
2022-08-27T05:37:36.650Z,6.75
2022-08-27T05:38:39.326Z,6.65
2022-08-27T05:39:42.140Z,6.97
2022-08-27T05:40:45.212Z,6.50
2022-08-27T05:41:47.921Z,6.88
2022-08-27T05:42:51.354Z,6.70
2022-08-27T05:44:01.324Z,6.57
2022-08-27T05:45:04.375Z,6.85
2022-08-27T05:46:09.569Z,6.72
2022-08-27T05:47:12.415Z,6.30
2022-08-27T05:48:16.100Z,6.95
2022-08-27T05:49:18.797Z,7.20
2022-08-27T05:50:23.655Z,6.35
2022-08-27T05:51:30.152Z,6.95
2022-08-27T05:52:34.420Z,7.53
2022-08-27T05:53:38.247Z,6.95
2022-08-27T05:54:41.079Z,6.45
2022-08-27T05:55:45.437Z,6.22
2022-08-27T05:56:50.039Z,6.38
2022-08-27T05:57:52.984Z,6.95
2022-08-27T05:59:14.165Z,6.60
2022-08-27T06:00:35.426Z,6.47
2022-08-27T06:01:41.165Z,7.00
2022-08-27T06:02:44.398Z,6.03
2022-08-27T06:03:47.362Z,6.22
2022-08-27T06:04:50.541Z,6.00
2022-08-27T06:06:03.714Z,6.07
2022-08-27T06:07:09.328Z,5.63
2022-08-27T06:08:12.414Z,6.13
2022-08-27T06:09:24.194Z,5.93
2022-08-27T06:10:26.791Z,6.15
2022-08-27T06:11:30.462Z,6.45
2022-08-27T06:12:33.386Z,6.13
2022-08-27T06:13:36.436Z,6.50
2022-08-27T06:14:41.075Z,6.32
2022-08-27T06:15:43.675Z,5.95
2022-08-27T06:16:46.618Z,6.20
2022-08-27T06:17:49.581Z,6.10
2022-08-27T06:18:53.149Z,6.03
2022-08-27T06:19:56.188Z,6.22
2022-08-27T06:20:59.258Z,6.15
2022-08-27T06:22:09.562Z,5.97
2022-08-27T06:23:13.435Z,6.78
2022-08-27T06:24:15.946Z,5.78
2022-08-27T06:25:18.602Z,6.18
2022-08-27T06:26:23.692Z,6.10
2022-08-27T06:27:26.383Z,5.43
2022-08-27T06:28:32.351Z,5.60
2022-08-27T06:29:35.257Z,5.38
2022-08-27T06:30:38.139Z,5.65
2022-08-27T06:31:42.579Z,5.95
2022-08-27T06:32:45.443Z,5.25
2022-08-27T06:33:50.052Z,5.25
2022-08-27T06:34:52.810Z,4.93
2022-08-27T06:35:55.543Z,5.53
2022-08-27T06:36:58.205Z,5.93
2022-08-27T06:38:00.822Z,4.97
2022-08-27T06:39:04.748Z,5.75
2022-08-27T06:40:08.371Z,5.97
2022-08-27T06:41:16.389Z,5.80
2022-08-27T06:42:26.762Z,4.70
2022-08-27T06:43:29.817Z,5.75
2022-08-27T06:44:32.751Z,5.10
2022-08-27T06:45:38.847Z,4.88
2022-08-27T06:46:42.785Z,5.10
2022-08-27T06:47:45.569Z,4.78
2022-08-27T06:48:51.222Z,5.10
2022-08-27T06:49:53.902Z,4.72
2022-08-27T06:50:56.691Z,5.15
2022-08-27T06:51:59.394Z,5.13
2022-08-27T06:53:02.231Z,5.05
2022-08-27T06:54:08.451Z,4.60
2022-08-27T06:55:11.469Z,5.35
2022-08-27T06:56:15.638Z,5.95
2022-08-27T06:57:18.214Z,5.13
2022-08-27T06:58:20.987Z,4.85
2022-08-27T06:59:23.784Z,4.45
2022-08-27T07:00:26.379Z,5.03
2022-08-27T07:01:32.186Z,5.00
2022-08-27T07:02:34.892Z,4.55
2022-08-27T07:03:37.494Z,4.45
2022-08-27T07:04:40.113Z,4.85
2022-08-27T07:05:42.896Z,4.80
2022-08-27T07:06:45.512Z,5.50
2022-08-27T07:07:48.901Z,4.50
2022-08-27T07:08:53.597Z,5.00
2022-08-27T07:09:56.979Z,5.20
2022-08-27T07:11:00.128Z,4.28
2022-08-27T07:12:03.278Z,4.63
2022-08-27T07:13:06.115Z,4.40
2022-08-27T07:14:08.984Z,4.60
2022-08-27T07:15:12.088Z,4.07
2022-08-27T07:16:18.094Z,4.28
2022-08-27T07:17:21.313Z,4.30
2022-08-27T07:18:27.292Z,4.38
2022-08-27T07:19:32.388Z,4.90
2022-08-27T07:20:35.643Z,4.85
2022-08-27T07:21:39.061Z,4.20
2022-08-27T07:22:42.736Z,4.50
2022-08-27T07:23:45.828Z,4.18
2022-08-27T07:24:48.531Z,4.47
2022-08-27T07:25:51.271Z,4.82
2022-08-27T07:26:54.510Z,3.97
2022-08-27T07:27:57.357Z,4.03
2022-08-27T07:29:01.004Z,4.50
2022-08-27T07:30:05.974Z,4.35
2022-08-27T07:31:10.859Z,4.13
2022-08-27T07:32:15.724Z,4.03
2022-08-27T07:33:18.639Z,3.92
2022-08-27T07:34:21.412Z,3.78
2022-08-27T07:35:24.083Z,3.85
2022-08-27T07:36:27.193Z,3.88
2022-08-27T07:37:35.244Z,4.00
2022-08-27T07:38:38.165Z,4.28
2022-08-27T07:39:40.908Z,3.75
2022-08-27T07:40:43.616Z,3.80
2022-08-27T07:42:04.633Z,4.07
2022-08-27T07:43:26.238Z,4.22
2022-08-27T07:44:31.022Z,3.90
2022-08-27T07:45:44.992Z,3.90
2022-08-27T07:46:49.612Z,4.22
2022-08-27T07:47:52.770Z,3.45
2022-08-27T07:48:57.312Z,4.30
2022-08-27T07:50:00.225Z,3.60
2022-08-27T07:51:05.328Z,3.50
2022-08-27T07:52:08.131Z,3.63
2022-08-27T07:53:10.814Z,4.18
2022-08-27T07:54:13.666Z,3.40
2022-08-27T07:55:16.413Z,3.88
2022-08-27T07:56:19.202Z,3.72
2022-08-27T07:57:21.922Z,3.65
2022-08-27T07:58:24.593Z,3.40
2022-08-27T07:59:27.540Z,3.22
2022-08-27T08:00:30.161Z,3.28
2022-08-27T08:01:33.124Z,3.38
2022-08-27T08:02:35.986Z,3.17
2022-08-27T08:03:38.759Z,3.15
2022-08-27T08:04:41.461Z,3.40
2022-08-27T08:05:44.273Z,3.42
2022-08-27T08:06:46.962Z,3.25
2022-08-27T08:07:52.211Z,3.10
2022-08-27T08:08:55.007Z,3.70
2022-08-27T08:09:59.545Z,3.50
2022-08-27T08:11:03.902Z,3.50
2022-08-27T08:12:07.623Z,2.95
2022-08-27T08:13:10.839Z,3.20
2022-08-27T08:14:13.522Z,3.15
2022-08-27T08:15:17.414Z,2.88
2022-08-27T08:16:21.005Z,3.08
2022-08-27T08:17:25.615Z,3.33
2022-08-27T08:18:28.922Z,3.25
2022-08-27T08:19:33.682Z,3.28
2022-08-27T08:20:57.093Z,3.10
2022-08-27T08:22:02.465Z,3.28
2022-08-27T08:23:09.744Z,3.05
2022-08-27T08:24:13.257Z,3.28
2022-08-27T08:25:16.566Z,3.58
2022-08-27T08:26:19.678Z,2.55
2022-08-27T08:27:22.411Z,3.22
2022-08-27T08:28:25.430Z,3.17
2022-08-27T08:29:28.221Z,3.13
2022-08-27T08:30:31.303Z,2.78
2022-08-27T08:31:38.204Z,3.13
2022-08-27T08:32:41.317Z,3.03
2022-08-27T08:33:44.012Z,2.85
2022-08-27T08:34:46.628Z,3.03
2022-08-27T08:35:49.285Z,2.90
2022-08-27T08:36:55.031Z,3.08
2022-08-27T08:37:58.035Z,2.80
2022-08-27T08:39:00.954Z,2.78
2022-08-27T08:40:04.569Z,3.10
2022-08-27T08:41:32.127Z,3.40
2022-08-27T08:42:40.179Z,3.00
2022-08-27T08:43:51.567Z,3.00
2022-08-27T08:44:55.256Z,2.90
2022-08-27T08:46:22.579Z,2.85
2022-08-27T08:47:31.535Z,2.78
2022-08-27T08:48:34.695Z,3.20
2022-08-27T08:49:37.286Z,3.30
2022-08-27T08:50:54.565Z,3.28
2022-08-27T08:52:03.887Z,3.40
2022-08-27T08:54:20.435Z,2.47
2022-08-27T08:55:44.424Z,2.70
2022-08-27T08:57:08.797Z,3.03
2022-08-27T08:58:23.412Z,3.08
2022-08-27T08:59:37.185Z,2.88
2022-08-27T09:00:40.931Z,2.55
2022-08-27T09:01:44.678Z,3.30
2022-08-27T09:02:54.689Z,2.88
2022-08-27T09:04:09.456Z,2.70
2022-08-27T09:05:12.277Z,2.72
2022-08-27T09:06:52.381Z,2.60
2022-08-27T09:08:21.797Z,2.85
2022-08-27T09:09:40.279Z,3.03
2022-08-27T09:10:44.548Z,2.95
2022-08-27T09:12:04.432Z,3.17
2022-08-27T09:13:20.066Z,2.67
2022-08-27T09:14:36.549Z,3.10
2022-08-27T09:15:39.538Z,2.70
2022-08-27T09:16:42.393Z,2.85
2022-08-27T09:17:47.702Z,2.50
2022-08-27T09:18:52.608Z,2.67
2022-08-27T09:19:55.362Z,2.90
2022-08-27T09:21:11.385Z,2.65
2022-08-27T09:22:44.202Z,2.40
2022-08-27T09:24:13.980Z,2.85
2022-08-27T09:25:31.916Z,2.70
2022-08-27T09:26:39.060Z,2.92
2022-08-27T09:27:43.087Z,3.10
2022-08-27T09:29:04.235Z,2.97
2022-08-27T09:30:10.866Z,2.67
2022-08-27T09:31:19.303Z,2.78
2022-08-27T09:32:31.718Z,2.80
2022-08-27T09:33:46.075Z,2.72
2022-08-27T09:35:03.298Z,3.35
2022-08-27T09:36:12.536Z,3.45
2022-08-27T09:38:37.496Z,2.88
2022-08-27T09:39:57.375Z,3.03
2022-08-27T09:41:06.542Z,2.63
2022-08-27T09:42:09.357Z,3.10
2022-08-27T09:43:20.397Z,2.90
2022-08-27T09:44:23.173Z,3.08
2022-08-27T09:45:30.123Z,2.65
2022-08-27T09:46:32.928Z,3.40
2022-08-27T09:47:53.562Z,2.78
2022-08-27T09:48:56.676Z,3.38
2022-08-27T09:50:09.162Z,2.78
2022-08-27T09:51:14.758Z,2.75
2022-08-27T09:53:03.349Z,3.10
2022-08-27T09:54:08.256Z,3.00
2022-08-27T09:55:11.923Z,2.67
2022-08-27T09:56:31.450Z,2.88
2022-08-27T09:57:39.170Z,2.78
2022-08-27T09:58:44.506Z,2.47
2022-08-27T09:59:54.536Z,2.80
2022-08-27T10:01:00.082Z,3.30
2022-08-27T10:02:15.692Z,3.10
2022-08-27T10:03:22.694Z,3.33
2022-08-27T10:04:51.151Z,3.08
2022-08-27T10:05:54.725Z,2.90
2022-08-27T10:06:57.464Z,3.03
2022-08-27T10:08:04.855Z,2.95
2022-08-27T10:09:33.171Z,2.88
2022-08-27T10:10:41.781Z,3.08
2022-08-27T10:11:57.405Z,2.95
2022-08-27T10:13:10.441Z,2.97
2022-08-27T10:14:21.587Z,3.00
2022-08-27T10:15:26.311Z,3.40
2022-08-27T10:16:52.936Z,3.00
2022-08-27T10:18:12.840Z,2.95
2022-08-27T10:19:18.916Z,2.95
2022-08-27T10:20:39.750Z,2.65
2022-08-27T10:22:06.001Z,2.80
2022-08-27T10:23:19.496Z,3.10
2022-08-27T10:24:28.109Z,3.05
2022-08-27T10:25:40.095Z,3.00
2022-08-27T10:27:11.224Z,2.78
2022-08-27T10:28:19.932Z,3.35
2022-08-27T10:29:40.717Z,2.53
2022-08-27T10:30:51.944Z,2.72
2022-08-27T10:32:13.353Z,2.67
2022-08-27T10:33:40.020Z,3.30
2022-08-27T10:35:05.958Z,2.92
2022-08-27T10:36:34.600Z,2.90
2022-08-27T10:37:46.358Z,2.72
2022-08-27T10:38:58.238Z,2.90
2022-08-27T10:40:29.676Z,3.10
2022-08-27T10:41:59.578Z,2.75
2022-08-27T10:43:17.241Z,3.03
2022-08-27T10:44:29.541Z,2.63
2022-08-27T10:45:42.764Z,2.92
2022-08-27T10:47:06.853Z,3.63
2022-08-27T10:48:33.816Z,3.30
2022-08-27T10:50:00.781Z,2.92
2022-08-27T10:51:20.031Z,3.60
2022-08-27T10:54:00.337Z,3.30
2022-08-27T10:55:15.578Z,3.70
2022-08-27T10:56:27.298Z,3.47
2022-08-27T10:58:01.228Z,3.65
2022-08-27T10:59:26.705Z,3.80
2022-08-27T11:00:42.582Z,3.75
2022-08-27T11:02:03.980Z,4.38
2022-08-27T11:03:26.917Z,4.00
2022-08-27T11:04:43.791Z,3.75
2022-08-27T11:05:48.676Z,3.70
2022-08-27T11:06:58.062Z,3.90
2022-08-27T11:08:05.449Z,4.22
2022-08-27T11:09:17.921Z,4.40
2022-08-27T11:10:56.932Z,4.43
2022-08-27T11:12:14.662Z,4.78
2022-08-27T11:13:41.570Z,4.10
2022-08-27T11:14:50.886Z,4.63
2022-08-27T11:15:56.729Z,4.53
2022-08-27T11:17:06.630Z,4.38
2022-08-27T11:18:17.818Z,3.92
2022-08-27T11:19:30.525Z,4.30
2022-08-27T11:20:54.013Z,4.05
2022-08-27T11:22:26.103Z,4.38
2022-08-27T11:24:18.737Z,5.03
2022-08-27T11:25:26.952Z,4.20
2022-08-27T11:26:31.895Z,4.78
2022-08-27T11:27:34.752Z,4.82
2022-08-27T11:28:49.391Z,4.50
2022-08-27T11:30:07.089Z,4.70
2022-08-27T11:31:17.716Z,4.72
2022-08-27T11:32:39.038Z,4.88
2022-08-27T11:34:09.388Z,5.00
2022-08-27T11:35:35.922Z,4.43
2022-08-27T11:36:41.291Z,4.65
2022-08-27T11:38:08.217Z,4.43
2022-08-27T11:39:31.868Z,5.25
2022-08-27T11:40:43.265Z,5.38
2022-08-27T11:42:08.934Z,5.15
2022-08-27T11:43:19.218Z,5.10
2022-08-27T11:44:24.698Z,5.30
2022-08-27T11:45:38.764Z,5.13
2022-08-27T11:46:45.687Z,5.13
2022-08-27T11:47:57.199Z,4.97
2022-08-27T11:49:02.802Z,5.40
2022-08-27T11:50:12.518Z,5.10
2022-08-27T11:51:34.390Z,5.97
2022-08-27T11:52:39.647Z,5.78
2022-08-27T11:53:59.370Z,5.60
2022-08-27T11:55:20.039Z,5.85
2022-08-27T11:56:33.470Z,6.03
2022-08-27T11:57:36.937Z,5.25
2022-08-27T11:58:52.843Z,5.32
2022-08-27T11:59:56.835Z,5.90
2022-08-27T12:01:04.299Z,5.45
2022-08-27T12:02:26.280Z,5.95
2022-08-27T12:03:32.730Z,5.78
2022-08-27T12:04:41.503Z,6.25
2022-08-27T12:05:47.604Z,6.15
2022-08-27T12:07:03.452Z,6.15
2022-08-27T12:08:21.168Z,5.97
2022-08-27T12:09:24.490Z,6.45
2022-08-27T12:10:27.269Z,6.20
2022-08-27T12:11:37.157Z,6.47
2022-08-27T12:13:00.687Z,6.68
2022-08-27T12:14:38.211Z,6.93
2022-08-27T12:16:02.753Z,6.63
2022-08-27T12:17:30.474Z,6.68
2022-08-27T12:18:53.407Z,5.85
2022-08-27T12:20:25.013Z,5.60
2022-08-27T12:21:39.803Z,5.90
2022-08-27T12:23:09.591Z,5.68
2022-08-27T12:24:55.629Z,6.50
2022-08-27T12:26:34.606Z,6.07
2022-08-27T12:27:37.443Z,5.57
2022-08-27T12:28:40.052Z,5.55
2022-08-27T12:29:50.135Z,5.10
2022-08-27T12:30:53.183Z,5.85
2022-08-27T12:32:06.585Z,6.35
2022-08-27T12:33:24.637Z,5.35
2022-08-27T12:34:43.893Z,5.70
2022-08-27T12:35:51.546Z,5.57
2022-08-27T12:36:55.692Z,5.82
2022-08-27T12:38:03.184Z,5.95
2022-08-27T12:39:14.632Z,6.07
2022-08-27T12:41:44.053Z,7.25
2022-08-27T12:42:47.872Z,6.03
2022-08-27T12:43:50.531Z,6.25
2022-08-27T12:44:57.938Z,6.07
2022-08-27T12:46:06.307Z,5.65
2022-08-27T12:47:13.423Z,5.47
2022-08-27T12:48:21.848Z,5.47
2022-08-27T12:49:38.104Z,5.68
2022-08-27T12:50:42.141Z,5.78
2022-08-27T12:51:45.770Z,5.63
2022-08-27T12:53:15.886Z,6.05
2022-08-27T12:54:41.037Z,5.65
2022-08-27T12:55:43.558Z,7.18
2022-08-27T12:57:02.918Z,7.55
2022-08-27T12:58:15.814Z,7.10
2022-08-27T12:59:38.059Z,7.32
2022-08-27T13:01:14.188Z,7.40
2022-08-27T13:02:25.384Z,6.72
2022-08-27T13:03:36.980Z,7.65
2022-08-27T13:04:41.609Z,6.47
2022-08-27T13:05:47.155Z,6.63
2022-08-27T13:06:50.778Z,6.40
2022-08-27T13:07:54.319Z,6.63
2022-08-27T13:08:59.465Z,5.70
2022-08-27T13:10:21.830Z,6.50
2022-08-27T13:11:27.092Z,5.43
2022-08-27T13:12:30.124Z,6.05
2022-08-27T13:13:32.731Z,5.95
2022-08-27T13:14:41.009Z,6.03
2022-08-27T13:16:03.083Z,6.45
2022-08-27T13:17:11.009Z,6.25
2022-08-27T13:18:14.693Z,5.97
2022-08-27T13:19:43.423Z,6.38
2022-08-27T13:20:52.720Z,6.22
2022-08-27T13:21:56.300Z,6.45
2022-08-27T13:22:59.021Z,5.78
2022-08-27T13:24:04.464Z,6.70
2022-08-27T13:25:30.079Z,7.05
2022-08-27T13:26:37.467Z,6.28
2022-08-27T13:27:40.031Z,7.65
2022-08-27T13:28:43.137Z,7.05
2022-08-27T13:29:45.967Z,7.20
2022-08-27T13:30:48.794Z,6.82
2022-08-27T13:31:52.325Z,6.78
2022-08-27T13:32:55.447Z,6.88
2022-08-27T13:33:58.949Z,7.07
2022-08-27T13:35:02.364Z,6.45
2022-08-27T13:36:06.921Z,6.70
2022-08-27T13:37:36.640Z,6.82
2022-08-27T13:38:49.776Z,6.00
2022-08-27T13:39:55.446Z,6.18
2022-08-27T13:41:06.412Z,7.00
2022-08-27T13:42:09.660Z,7.38
2022-08-27T13:43:13.613Z,6.38
2022-08-27T13:44:19.799Z,6.47
2022-08-27T13:45:22.666Z,6.50
2022-08-27T13:46:29.854Z,6.95
2022-08-27T13:47:45.409Z,6.85
2022-08-27T13:48:50.276Z,7.03
2022-08-27T13:50:07.729Z,7.03
2022-08-27T13:51:11.422Z,6.57
2022-08-27T13:52:29.777Z,6.85
2022-08-27T13:53:51.414Z,6.88
2022-08-27T13:55:05.929Z,6.88
2022-08-27T13:56:09.653Z,7.82
2022-08-27T13:57:31.590Z,8.27
2022-08-27T13:58:35.970Z,6.95
2022-08-27T13:59:43.187Z,6.82
2022-08-27T14:00:46.128Z,7.22
2022-08-27T14:02:22.821Z,7.35
2022-08-27T14:03:32.520Z,7.38
2022-08-27T14:04:43.960Z,6.85
2022-08-27T14:05:49.915Z,7.85
2022-08-27T14:06:53.216Z,7.32
2022-08-27T14:07:58.432Z,7.57
2022-08-27T14:09:28.757Z,7.82
2022-08-27T14:10:36.796Z,8.27
2022-08-27T14:11:39.430Z,7.65
2022-08-27T14:12:42.918Z,8.25
2022-08-27T14:13:47.028Z,7.55
2022-08-27T14:14:54.535Z,7.47
2022-08-27T14:15:59.405Z,8.32
2022-08-27T14:17:03.519Z,7.97
2022-08-27T14:18:09.262Z,8.05
2022-08-27T14:19:36.514Z,8.02
2022-08-27T14:20:39.745Z,7.93
2022-08-27T14:21:45.981Z,7.43
2022-08-27T14:22:49.567Z,7.07
2022-08-27T14:23:52.501Z,7.55
2022-08-27T14:24:55.170Z,7.75
2022-08-27T14:25:59.426Z,7.38
2022-08-27T14:27:13.331Z,6.72
2022-08-27T14:28:15.928Z,8.10
2022-08-27T14:29:19.074Z,8.07
2022-08-27T14:30:29.128Z,7.20
2022-08-27T14:31:32.868Z,7.22
2022-08-27T14:32:35.541Z,7.55
2022-08-27T14:33:38.226Z,7.25
2022-08-27T14:34:40.784Z,7.43
2022-08-27T14:35:44.284Z,7.43
2022-08-27T14:36:47.067Z,6.82
2022-08-27T14:37:50.559Z,7.55
2022-08-27T14:38:54.196Z,7.07
2022-08-27T14:39:57.776Z,7.13
2022-08-27T14:41:00.940Z,7.18
2022-08-27T14:42:04.390Z,6.80
2022-08-27T14:43:08.189Z,7.18
2022-08-27T14:44:11.693Z,7.30
2022-08-27T14:45:14.541Z,6.63
2022-08-27T14:46:27.054Z,7.50
2022-08-27T14:47:33.581Z,7.63
2022-08-27T14:48:37.007Z,6.72
2022-08-27T14:49:41.626Z,7.63
2022-08-27T14:50:44.360Z,7.15
2022-08-27T14:51:47.189Z,7.40
2022-08-27T14:52:50.270Z,7.20
2022-08-27T14:53:53.153Z,7.90
2022-08-27T14:54:55.870Z,7.38
2022-08-27T14:56:00.671Z,7.85
2022-08-27T14:57:04.536Z,7.80
2022-08-27T14:58:07.211Z,8.27
2022-08-27T14:59:09.816Z,7.35
2022-08-27T15:00:13.100Z,7.95
2022-08-27T15:01:17.608Z,7.32
2022-08-27T15:02:21.310Z,8.27
2022-08-27T15:03:27.053Z,7.45